Time;durP1;ratioP1;P1;durP2;ratioP2;P2;SDS_P1;SDS_P2;PMS_P1;PMS_P2;Temp;Humidity;BMP_temperature;BMP_pressure;BME280_temperature;BME280_humidity;BME280_pressure;Samples;Min_cycle;Max_cycle;Signal;HPM_P1;HPM_P2
2020/12/04 00:01:33;;;;;;;22.48;14.18;;;1.50;93.80;;;;;;5051801;28;20051;-80
2020/12/04 00:03:59;;;;;;;27.65;14.98;;;1.40;93.00;;;;;;5070318;28;20029;-80
2020/12/04 00:06:25;;;;;;;26.75;13.73;;;1.50;91.60;;;;;;5064818;28;20052;-80
2020/12/04 00:08:50;;;;;;;22.05;12.65;;;1.50;92.10;;;;;;5070431;28;20030;-80
2020/12/04 00:11:16;;;;;;;24.20;13.60;;;1.50;92.50;;;;;;5069094;28;20106;-80
2020/12/04 00:13:42;;;;;;;24.33;13.90;;;1.50;93.00;;;;;;5069603;28;20325;-79
2020/12/04 00:16:07;;;;;;;22.95;13.18;;;1.40;93.20;;;;;;5070340;28;20487;-80
2020/12/04 00:18:33;;;;;;;27.08;14.95;;;1.40;93.80;;;;;;5068288;28;20024;-80
2020/12/04 00:20:59;;;;;;;24.02;14.35;;;1.40;94.30;;;;;;5065596;28;20028;-80
2020/12/04 00:23:24;;;;;;;26.30;14.07;;;1.50;94.00;;;;;;5065474;28;20041;-79
2020/12/04 00:25:50;;;;;;;23.10;12.65;;;1.50;92.70;;;;;;5069607;28;20056;-80
2020/12/04 00:28:15;;;;;;;27.30;14.02;;;1.40;93.30;;;;;;5070574;28;20100;-80
2020/12/04 00:30:41;;;;;;;22.70;13.48;;;1.40;93.00;;;;;;5069050;28;20025;-80
2020/12/04 00:33:07;;;;;;;22.63;13.88;;;1.40;92.90;;;;;;5069987;28;20038;-80
2020/12/04 00:35:32;;;;;;;27.95;14.90;;;1.40;92.00;;;;;;5050967;28;20036;-80
2020/12/04 00:37:58;;;;;;;25.83;13.38;;;1.40;92.40;;;;;;5051744;28;20032;-80
2020/12/04 00:40:24;;;;;;;22.95;13.73;;;1.40;92.10;;;;;;5068857;28;20047;-80
2020/12/04 00:42:49;;;;;;;22.77;13.27;;;1.50;91.70;;;;;;5051613;28;20043;-80
2020/12/04 00:45:15;;;;;;;20.92;13.32;;;1.50;91.60;;;;;;5065920;28;20469;-80
2020/12/04 00:47:41;;;;;;;22.70;14.02;;;1.50;91.80;;;;;;5064185;28;20032;-80
2020/12/04 00:50:07;;;;;;;21.15;12.18;;;1.40;92.30;;;;;;5061419;28;20031;-80
2020/12/04 00:52:33;;;;;;;27.17;14.23;;;1.40;92.10;;;;;;5068883;28;20436;-80
2020/12/04 00:54:58;;;;;;;23.90;12.65;;;1.40;92.70;;;;;;5069231;28;20098;-80
2020/12/04 00:57:24;;;;;;;23.42;13.38;;;1.40;92.80;;;;;;5068854;28;20527;-79
2020/12/04 00:59:50;;;;;;;27.15;13.63;;;1.30;92.80;;;;;;5066766;28;20021;-80
2020/12/04 01:02:16;;;;;;;22.13;12.77;;;1.30;92.70;;;;;;5066033;28;20067;-80
2020/12/04 01:04:42;;;;;;;24.52;14.27;;;1.40;92.00;;;;;;5068635;28;20119;-80
2020/12/04 01:07:08;;;;;;;25.08;14.48;;;1.40;91.80;;;;;;5068745;28;20035;-81
2020/12/04 01:09:34;;;;;;;23.00;13.45;;;1.40;91.30;;;;;;5068915;28;20107;-80
2020/12/04 01:12:00;;;;;;;21.05;13.32;;;1.40;91.30;;;;;;5051148;28;20033;-80
2020/12/04 01:14:29;;;;;;;23.75;13.40;;;1.40;91.20;;;;;;5068127;28;20033;-80
2020/12/04 01:16:54;;;;;;;25.38;14.60;;;1.40;91.10;;;;;;5046646;28;20426;-81
2020/12/04 01:19:20;;;;;;;22.50;12.77;;;1.40;90.40;;;;;;5069143;28;20112;-80
2020/12/04 01:21:50;;;;;;;24.35;13.20;;;1.50;90.60;;;;;;5069329;28;20393;-79
2020/12/04 01:24:16;;;;;;;23.42;13.75;;;1.50;90.20;;;;;;5069079;28;20033;-79
2020/12/04 01:26:41;;;;;;;23.55;13.32;;;1.40;90.30;;;;;;5068222;28;20104;-80
2020/12/04 01:29:08;;;;;;;24.85;13.85;;;1.50;90.00;;;;;;5069238;28;20036;-79
2020/12/04 01:31:33;;;;;;;26.27;14.50;;;1.50;90.00;;;;;;5068148;28;20398;-79
2020/12/04 01:34:00;;;;;;;25.27;13.90;;;1.50;88.90;;;;;;5069719;28;20024;-79
2020/12/04 01:36:30;;;;;;;24.20;14.23;;;1.50;89.00;;;;;;5068128;28;20043;-78
2020/12/04 01:38:57;;;;;;;20.88;12.63;;;1.50;90.00;;;;;;5039670;28;20072;-79
2020/12/04 01:41:23;;;;;;;24.35;13.13;;;1.50;88.70;;;;;;5072666;28;20075;-79
2020/12/04 01:43:48;;;;;;;22.42;12.90;;;1.60;88.80;;;;;;5054768;28;20060;-80
2020/12/04 01:46:14;;;;;;;23.58;13.98;;;1.60;89.00;;;;;;5055055;28;20024;-79
2020/12/04 01:48:43;;;;;;;22.00;13.27;;;1.50;89.10;;;;;;5071914;28;20024;-80
2020/12/04 01:51:08;;;;;;;22.25;13.32;;;1.60;89.80;;;;;;5072440;28;20404;-79
2020/12/04 01:53:34;;;;;;;22.83;12.38;;;1.50;90.10;;;;;;5069900;28;20089;-79
2020/12/04 01:56:01;;;;;;;23.38;13.82;;;1.50;90.50;;;;;;5073661;28;20489;-79
2020/12/04 01:58:26;;;;;;;23.73;13.63;;;1.50;89.00;;;;;;5092988;28;20059;-79
2020/12/04 02:00:52;;;;;;;22.95;13.15;;;1.50;90.00;;;;;;5093322;28;20056;-80
2020/12/04 02:03:18;;;;;;;21.55;13.30;;;1.50;89.70;;;;;;5093656;28;20110;-80
2020/12/04 02:06:06;;;;;;;24.35;14.00;;;1.50;90.20;;;;;;5086137;28;20040;-80
2020/12/04 02:08:53;;;;;;;24.75;13.73;;;1.50;90.00;;;;;;5091044;28;20031;-80
2020/12/04 02:11:22;;;;;;;24.88;13.80;;;1.50;90.20;;;;;;5092599;28;20024;-81
2020/12/04 02:13:52;;;;;;;27.37;13.83;;;1.50;90.70;;;;;;5092378;28;20042;-80
2020/12/04 02:16:20;;;;;;;25.33;13.98;;;1.50;90.80;;;;;;5086224;28;20062;-81
2020/12/04 02:18:47;;;;;;;26.80;13.40;;;1.50;90.60;;;;;;5092366;28;20032;-80
2020/12/04 02:21:13;;;;;;;25.40;14.00;;;1.50;90.40;;;;;;5092485;28;20036;-80
2020/12/04 02:23:43;;;;;;;25.08;14.40;;;1.60;90.00;;;;;;5083536;28;20106;-80
2020/12/04 02:26:10;;;;;;;22.75;13.07;;;1.60;90.10;;;;;;5093949;28;20031;-80
2020/12/04 02:28:37;;;;;;;26.02;13.98;;;1.60;90.40;;;;;;5072218;28;20132;-79
2020/12/04 02:31:07;;;;;;;28.17;15.50;;;1.60;90.30;;;;;;5093159;28;20032;-79
2020/12/04 02:33:34;;;;;;;25.45;14.60;;;1.60;90.30;;;;;;5091796;28;20051;-79
2020/12/04 02:36:01;;;;;;;26.13;14.15;;;1.50;90.30;;;;;;5090977;28;20115;-80
2020/12/04 02:38:27;;;;;;;26.23;14.13;;;1.60;90.50;;;;;;5091680;28;20489;-79
2020/12/04 02:40:54;;;;;;;26.13;14.40;;;1.60;90.60;;;;;;5092228;28;20036;-79
2020/12/04 02:43:20;;;;;;;27.08;15.05;;;1.60;90.30;;;;;;5092765;28;20052;-79
2020/12/04 02:45:47;;;;;;;26.08;14.43;;;1.60;90.40;;;;;;5091552;28;20107;-79
2020/12/04 02:48:13;;;;;;;25.83;14.18;;;1.50;90.60;;;;;;5089890;28;20024;-79
2020/12/04 02:50:39;;;;;;;26.40;14.88;;;1.60;90.70;;;;;;5090873;28;20032;-78
2020/12/04 02:53:05;;;;;;;24.27;14.13;;;1.50;90.80;;;;;;5091286;28;20028;-79
2020/12/04 02:55:31;;;;;;;22.67;13.52;;;1.50;91.00;;;;;;5089087;28;20047;-79
2020/12/04 02:57:57;;;;;;;26.40;14.30;;;1.50;90.90;;;;;;5092164;28;20032;-79
2020/12/04 03:00:23;;;;;;;23.10;13.05;;;1.50;91.00;;;;;;5089874;28;20392;-78
2020/12/04 03:02:49;;;;;;;28.30;14.23;;;1.50;91.00;;;;;;5090483;28;20024;-79
2020/12/04 03:05:14;;;;;;;22.90;13.65;;;1.50;91.20;;;;;;5091911;28;20028;-78
2020/12/04 03:07:40;;;;;;;20.75;12.20;;;1.50;91.20;;;;;;5079265;28;20144;-78
2020/12/04 03:10:06;;;;;;;23.50;12.63;;;1.50;91.30;;;;;;5076442;28;20115;-79
2020/12/04 03:12:33;;;;;;;22.85;12.77;;;1.40;91.70;;;;;;5063857;28;20029;-79
2020/12/04 03:15:02;;;;;;;25.17;13.88;;;1.50;92.20;;;;;;5061922;28;20029;-78
2020/12/04 03:17:28;;;;;;;22.88;13.23;;;1.40;92.70;;;;;;5084994;28;20067;-79
2020/12/04 03:19:55;;;;;;;24.95;14.20;;;1.40;92.90;;;;;;5091817;28;20508;-78
2020/12/04 03:22:21;;;;;;;22.67;13.48;;;1.40;93.40;;;;;;5089987;28;20028;-78
2020/12/04 03:24:47;;;;;;;23.38;13.55;;;1.40;93.50;;;;;;5089918;28;20040;-79
2020/12/04 03:27:12;;;;;;;22.85;13.50;;;1.40;93.80;;;;;;5090883;28;20032;-79
2020/12/04 03:29:38;;;;;;;24.80;13.85;;;1.30;94.30;;;;;;5084023;28;20119;-79
2020/12/04 03:32:04;;;;;;;23.80;14.07;;;1.30;94.50;;;;;;5088361;28;20048;-79
2020/12/04 03:34:29;;;;;;;23.25;13.52;;;1.30;94.00;;;;;;5090058;28;20028;-79
2020/12/04 03:36:56;;;;;;;25.98;13.82;;;1.30;94.00;;;;;;5089937;28;20114;-79
2020/12/04 03:39:22;;;;;;;21.83;13.20;;;1.30;93.70;;;;;;5090877;28;20028;-79
2020/12/04 03:41:48;;;;;;;22.05;13.35;;;1.30;92.90;;;;;;5079740;28;20040;-79
2020/12/04 03:44:14;;;;;;;24.38;14.52;;;1.40;92.60;;;;;;5084666;28;20039;-79
2020/12/04 03:46:43;;;;;;;36.72;18.98;;;1.40;94.10;;;;;;5089367;28;20028;-79
2020/12/04 03:49:13;;;;;;;31.02;16.23;;;1.50;95.00;;;;;;5090057;28;20529;-79
2020/12/04 03:51:43;;;;;;;28.08;15.13;;;1.50;95.40;;;;;;5090511;28;20040;-79
2020/12/04 03:54:12;;;;;;;25.58;13.45;;;1.50;95.40;;;;;;5090582;28;20032;-79
2020/12/04 03:56:38;;;;;;;23.75;12.95;;;1.40;95.50;;;;;;5090168;28;20075;-79
2020/12/04 03:59:05;;;;;;;21.08;12.95;;;1.40;95.60;;;;;;5080583;28;20039;-79
2020/12/04 04:01:32;;;;;;;25.45;14.77;;;1.40;95.50;;;;;;5090390;28;20583;-78
2020/12/04 04:03:58;;;;;;;22.85;13.15;;;1.40;95.40;;;;;;5089828;28;20412;-79
2020/12/04 04:06:24;;;;;;;22.67;12.80;;;1.40;95.50;;;;;;5084036;28;20025;-78
2020/12/04 04:08:50;;;;;;;25.60;13.68;;;1.40;95.20;;;;;;5090573;28;20097;-80
2020/12/04 04:11:16;;;;;;;25.83;14.50;;;1.50;94.90;;;;;;5090894;28;20477;-79
2020/12/04 04:13:41;;;;;;;31.33;14.43;;;1.40;94.90;;;;;;5088815;28;20601;-79
2020/12/04 04:16:07;;;;;;;24.70;13.75;;;1.50;94.80;;;;;;5084312;28;20043;-79
2020/12/04 04:18:33;;;;;;;25.88;14.13;;;1.40;94.90;;;;;;5079331;28;20024;-79
2020/12/04 04:21:01;;;;;;;26.75;13.52;;;1.40;94.80;;;;;;5090644;28;20028;-79
2020/12/04 04:23:27;;;;;;;28.33;14.63;;;1.50;94.70;;;;;;5089726;28;20036;-78
2020/12/04 04:25:53;;;;;;;25.27;13.23;;;1.50;94.30;;;;;;5090410;28;20028;-79
2020/12/04 04:28:19;;;;;;;21.92;13.23;;;1.50;94.00;;;;;;5090378;28;20034;-80
2020/12/04 04:30:44;;;;;;;23.25;13.45;;;1.50;93.70;;;;;;5089648;28;20032;-79
2020/12/04 04:33:10;;;;;;;27.00;14.20;;;1.50;93.60;;;;;;5090308;28;20082;-80
2020/12/04 04:35:36;;;;;;;25.38;14.45;;;1.50;93.50;;;;;;5089890;28;20119;-80
2020/12/04 04:38:02;;;;;;;29.08;13.88;;;1.50;94.20;;;;;;5089646;28;20423;-80
2020/12/04 04:40:29;;;;;;;28.13;14.32;;;1.50;94.10;;;;;;5089724;28;20031;-79
2020/12/04 04:43:15;;;;;;;23.85;13.50;;;1.60;93.40;;;;;;5090283;28;20047;-80
2020/12/04 04:45:45;;;;;;;23.02;13.25;;;1.60;94.00;;;;;;5089461;28;20080;-80
2020/12/04 04:48:15;;;;;;;;;;;1.70;94.90;;;;;;5089400;28;20487;-80
2020/12/04 04:50:44;;;;;;;27.27;12.80;;;1.70;95.10;;;;;;5073697;28;19977;-80
2020/12/04 04:53:11;;;;;;;25.80;13.05;;;1.70;94.70;;;;;;5090596;28;20068;-80
2020/12/04 04:55:41;;;;;;;25.02;13.32;;;1.70;94.70;;;;;;5084977;28;20051;-81
2020/12/04 04:58:07;;;;;;;34.42;14.52;;;1.70;94.50;;;;;;5076772;28;20111;-81
2020/12/04 05:00:33;;;;;;;24.65;13.32;;;1.70;94.10;;;;;;5089231;28;20103;-80
2020/12/04 05:02:59;;;;;;;23.40;12.20;;;1.70;94.60;;;;;;5081855;28;20024;-80
2020/12/04 05:05:47;;;;;;;33.97;16.45;;;1.70;94.90;;;;;;5086018;28;20060;-80
2020/12/04 05:08:21;;;;;;;27.17;14.40;;;1.80;94.80;;;;;;5075518;28;20418;-78
2020/12/04 05:10:49;;;;;;;26.75;13.35;;;1.80;95.20;;;;;;5090922;28;20028;-78
2020/12/04 05:13:19;;;;;;;27.67;14.05;;;1.80;95.30;;;;;;5077607;28;20020;-78
2020/12/04 05:15:45;;;;;;;25.45;13.23;;;1.80;95.50;;;;;;5089804;28;20031;-78
2020/12/04 05:18:14;;;;;;;22.00;12.43;;;1.80;95.50;;;;;;5093853;28;20036;-78
2020/12/04 05:20:42;;;;;;;25.38;12.90;;;1.80;95.20;;;;;;5093341;28;20028;-78
2020/12/04 05:23:09;;;;;;;22.50;12.93;;;1.80;94.90;;;;;;5092284;28;20028;-79
2020/12/04 05:25:36;;;;;;;22.08;12.43;;;1.80;94.80;;;;;;5091850;28;20024;-78
2020/12/04 05:28:19;;;;;;;21.92;12.27;;;1.80;95.00;;;;;;5092949;28;20032;-78
2020/12/04 05:30:48;;;;;;;21.98;13.00;;;1.80;94.60;;;;;;5081570;28;20028;-79
2020/12/04 05:33:13;;;;;;;22.60;13.30;;;1.80;95.00;;;;;;5080352;28;20028;-79
2020/12/04 05:35:41;;;;;;;20.45;12.05;;;1.80;94.70;;;;;;5090748;28;20088;-78
2020/12/04 05:38:08;;;;;;;25.42;12.70;;;1.80;94.90;;;;;;5079970;28;20039;-79
2020/12/04 05:40:35;;;;;;;19.45;11.73;;;1.80;95.00;;;;;;5094015;28;20024;-79
2020/12/04 05:43:01;;;;;;;24.33;13.70;;;1.80;94.60;;;;;;5093484;28;20107;-79
2020/12/04 05:45:27;;;;;;;21.90;12.93;;;1.80;94.60;;;;;;5093374;28;20186;-79
2020/12/04 05:47:53;;;;;;;24.58;13.57;;;1.90;94.70;;;;;;5093662;28;20103;-80
2020/12/04 05:50:18;;;;;;;21.98;13.05;;;1.80;93.90;;;;;;5091786;28;20492;-79
2020/12/04 05:52:48;;;;;;;21.83;12.38;;;1.80;94.20;;;;;;5091739;28;20040;-79
2020/12/04 05:55:13;;;;;;;21.98;13.13;;;1.80;94.40;;;;;;5078466;28;20109;-79
2020/12/04 05:57:46;;;;;;;23.10;13.45;;;1.80;94.40;;;;;;5072161;28;20880;-79
2020/12/04 06:00:16;;;;;;;20.38;11.88;;;1.80;93.70;;;;;;5072304;28;20029;-81
2020/12/04 06:02:42;;;;;;;19.02;11.00;;;1.80;92.80;;;;;;5053297;28;20028;-78
2020/12/04 06:05:12;;;;;;;17.90;10.80;;;1.90;93.00;;;;;;5067529;28;20032;-79
2020/12/04 06:07:42;;;;;;;;;;;1.90;92.20;;;;;;5064162;28;20162;-79
2020/12/04 06:10:08;;;;;;;22.17;10.52;;;2.00;91.70;;;;;;5054511;28;20262;-82
2020/12/04 06:12:34;;;;;;;24.15;12.88;;;2.00;91.90;;;;;;5072067;28;20032;-77
2020/12/04 06:15:21;;;;;;;26.52;11.90;;;2.00;92.10;;;;;;5056841;28;20040;-78
2020/12/04 06:17:48;;;;;;;21.63;12.80;;;2.00;92.20;;;;;;5053315;28;20044;-79
2020/12/04 06:20:21;;;;;;;23.67;12.65;;;2.10;92.50;;;;;;5056822;28;20059;-79
2020/12/04 06:23:11;;;;;;;24.45;12.70;;;2.10;92.30;;;;;;5037354;28;20037;-78
2020/12/04 06:25:52;;;;;;;19.83;12.15;;;2.10;91.90;;;;;;5037034;28;20045;-79
2020/12/04 06:28:39;;;;;;;19.00;11.10;;;2.10;91.90;;;;;;5052445;28;20096;-78
2020/12/04 06:31:13;;;;;;;25.35;11.30;;;2.20;87.10;;;;;;5049836;28;20036;-78
2020/12/04 06:33:49;;;;;;;18.42;10.20;;;2.30;85.20;;;;;;5048744;28;20468;-79
2020/12/04 06:36:30;;;;;;;22.05;11.13;;;2.40;84.30;;;;;;5057581;28;20440;-78
2020/12/04 06:38:55;;;;;;;;;;;2.50;82.60;;;;;;5053259;28;20037;-81
2020/12/04 06:42:37;;;;;;;16.70;9.98;;;2.60;81.70;;;;;;5153412;27;20148;-76
2020/12/04 06:45:03;;;;;;;21.00;10.13;;;2.60;82.80;;;;;;5136241;27;20046;-77
2020/12/04 06:47:30;;;;;;;20.10;9.80;;;2.60;83.00;;;;;;5135199;27;20046;-79
2020/12/04 06:49:56;;;;;;;19.98;10.77;;;2.70;82.40;;;;;;5138922;27;20414;-78
2020/12/04 06:52:23;;;;;;;20.58;11.60;;;2.70;82.50;;;;;;5119106;27;20035;-79
2020/12/04 06:54:50;;;;;;;19.17;10.68;;;2.70;81.10;;;;;;5134859;27;20039;-80
2020/12/04 06:57:20;;;;;;;20.40;11.40;;;2.70;81.30;;;;;;5138032;27;20030;-77
2020/12/04 06:59:47;;;;;;;19.25;10.68;;;2.70;81.60;;;;;;5136499;27;20027;-78
2020/12/04 07:02:17;;;;;;;18.55;11.38;;;2.70;80.40;;;;;;5134951;27;20043;-77
2020/12/04 07:04:48;;;;;;;17.10;10.70;;;2.70;80.30;;;;;;5127247;27;20043;-79
2020/12/04 07:07:24;;;;;;;22.17;12.10;;;2.70;81.80;;;;;;5110904;28;20377;-78
2020/12/04 07:09:55;;;;;;;17.60;9.80;;;2.70;81.40;;;;;;5127601;28;20031;-77
2020/12/04 07:12:22;;;;;;;18.10;10.27;;;2.70;79.70;;;;;;5126952;28;20764;-80
2020/12/04 07:14:50;;;;;;;19.17;11.45;;;2.70;80.00;;;;;;5128067;27;20020;-78
2020/12/04 07:17:20;;;;;;;20.58;11.48;;;2.80;79.70;;;;;;5121137;27;20108;-83
2020/12/04 07:19:47;;;;;;;;;;;2.80;80.70;;;;;;5123650;27;20501;-82
2020/12/04 07:22:14;;;;;;;16.90;10.45;;;2.80;80.40;;;;;;5137873;27;19912;-80
2020/12/04 07:24:40;;;;;;;20.60;11.00;;;2.80;80.80;;;;;;5126657;28;20111;-81
2020/12/04 07:27:06;;;;;;;17.63;10.02;;;2.80;81.00;;;;;;5119161;28;20130;-85
2020/12/04 07:29:32;;;;;;;16.08;10.05;;;2.80;80.70;;;;;;5119609;28;20031;-84
2020/12/04 07:31:58;;;;;;;16.63;10.25;;;2.80;79.50;;;;;;5119266;28;20036;-84
2020/12/04 07:34:25;;;;;;;21.67;11.32;;;2.80;82.50;;;;;;5126879;28;20067;-79
2020/12/04 07:36:54;;;;;;;20.20;11.52;;;2.80;81.60;;;;;;5127207;28;20039;-82
2020/12/04 07:39:44;;;;;;;19.45;10.48;;;2.80;81.00;;;;;;5127242;28;20376;-86
2020/12/04 07:42:12;;;;;;;21.30;10.30;;;2.80;81.60;;;;;;5117911;28;20487;-84
2020/12/04 07:44:43;;;;;;;16.98;10.23;;;2.80;79.70;;;;;;5116336;28;20027;-81
2020/12/04 07:47:13;;;;;;;18.25;10.77;;;2.70;80.40;;;;;;5126717;28;20039;-79
2020/12/04 07:49:53;;;;;;;20.77;12.18;;;2.70;79.80;;;;;;5126708;28;20480;-84
2020/12/04 07:52:26;;;;;;;;;;;2.80;80.50;;;;;;5115117;28;20039;-83
2020/12/04 07:55:14;;;;;;;14.98;9.30;;;2.80;79.90;;;;;;5119816;28;19907;-82
2020/12/04 07:57:48;;;;;;;17.17;9.27;;;2.80;80.00;;;;;;5111610;27;20050;-85
2020/12/04 08:00:15;;;;;;;21.98;11.65;;;2.90;81.80;;;;;;5113549;28;20063;-82
2020/12/04 08:02:41;;;;;;;16.75;10.35;;;2.90;82.10;;;;;;5112664;28;20031;-86
2020/12/04 08:05:06;;;;;;;18.50;9.82;;;2.90;80.80;;;;;;5113934;28;20360;-86
2020/12/04 08:07:33;;;;;;;16.10;9.80;;;2.90;80.10;;;;;;5122706;27;20034;-85
2020/12/04 08:09:59;;;;;;;17.48;9.48;;;3.00;79.60;;;;;;5120194;27;20034;-85
2020/12/04 08:12:31;;;;;;;18.20;9.95;;;3.00;78.90;;;;;;5118293;27;20040;-79
2020/12/04 08:14:58;;;;;;;22.30;11.25;;;3.00;78.60;;;;;;5118917;27;20015;-86
2020/12/04 08:17:28;;;;;;;21.65;12.80;;;3.10;80.30;;;;;;5102323;27;20027;-79
2020/12/04 08:19:55;;;;;;;22.65;11.52;;;3.10;80.80;;;;;;5120908;27;20099;-84
2020/12/04 08:22:31;;;;;;;22.90;11.82;;;3.10;81.80;;;;;;5112672;28;20035;-84
2020/12/04 08:25:17;;;;;;;23.83;11.35;;;3.20;81.00;;;;;;5097764;28;20057;-89
2020/12/04 08:27:45;;;;;;;21.13;12.10;;;3.20;81.40;;;;;;5112800;28;20022;-86
2020/12/04 08:30:18;;;;;;;23.05;12.00;;;3.20;82.20;;;;;;5106592;28;20429;-82
2020/12/04 08:32:49;;;;;;;25.73;11.82;;;3.20;82.00;;;;;;5096190;28;20038;-82
2020/12/04 08:35:21;;;;;;;24.42;12.13;;;3.30;82.30;;;;;;5114128;28;20036;-88
2020/12/04 08:37:48;;;;;;;28.52;15.57;;;3.30;80.90;;;;;;5112359;28;20055;-79
2020/12/04 08:40:29;;;;;;;30.63;15.98;;;3.30;82.70;;;;;;5118765;27;20033;-84
2020/12/04 08:43:07;;;;;;;26.58;13.20;;;3.30;82.60;;;;;;5120408;27;20023;-78
2020/12/04 08:45:33;;;;;;;22.15;12.77;;;3.40;82.80;;;;;;5113418;27;20041;-78
2020/12/04 08:48:10;;;;;;;22.38;12.75;;;3.40;82.20;;;;;;5119741;27;20419;-77
2020/12/04 08:50:46;;;;;;;28.75;13.27;;;3.50;82.00;;;;;;5118465;27;20482;-83
2020/12/04 08:53:14;;;;;;;21.83;12.05;;;3.50;81.50;;;;;;5113942;27;20024;-79
2020/12/04 08:55:46;;;;;;;21.35;11.43;;;3.50;80.40;;;;;;5111267;28;20035;-88
2020/12/04 08:58:14;;;;;;;16.88;9.65;;;3.60;80.70;;;;;;5120915;27;20027;-88
2020/12/04 09:00:40;;;;;;;20.83;11.00;;;3.70;77.40;;;;;;5126591;27;20035;-86
2020/12/04 09:03:06;;;;;;;25.83;11.73;;;3.80;75.50;;;;;;5119556;27;20035;-84
2020/12/04 09:05:32;;;;;;;20.50;9.75;;;3.90;75.10;;;;;;5119330;27;20055;-83
2020/12/04 09:07:57;;;;;;;22.23;10.65;;;3.90;75.30;;;;;;5119384;27;20028;-81
2020/12/04 09:10:23;;;;;;;22.95;12.27;;;4.00;75.80;;;;;;5122266;27;20058;-81
2020/12/04 09:12:49;;;;;;;23.52;12.13;;;4.10;76.50;;;;;;5127760;27;20028;-84
2020/12/04 09:15:17;;;;;;;28.77;12.82;;;4.10;75.30;;;;;;5128293;27;20377;-83
2020/12/04 09:17:43;;;;;;;27.55;12.07;;;4.10;75.10;;;;;;5112608;28;20028;-87
2020/12/04 09:20:12;;;;;;;24.92;11.05;;;4.10;74.60;;;;;;5112489;28;20032;-86
2020/12/04 09:22:38;;;;;;;25.17;12.30;;;4.20;75.20;;;;;;5106537;28;20126;-88
2020/12/04 09:25:06;;;;;;;22.45;10.93;;;4.30;74.90;;;;;;5132997;28;20004;-85
2020/12/04 09:27:31;;;;;;;18.23;9.38;;;4.40;73.90;;;;;;5106714;28;20032;-85
2020/12/04 09:29:57;;;;;;;14.88;9.57;;;4.50;72.10;;;;;;5111951;28;20024;-85
2020/12/04 09:32:23;;;;;;;23.70;10.25;;;4.50;70.90;;;;;;5110784;27;20483;-80
2020/12/04 09:34:50;;;;;;;22.45;9.57;;;4.60;71.00;;;;;;5115038;27;20403;-85
2020/12/04 09:37:22;;;;;;;17.63;10.20;;;4.60;72.30;;;;;;5113283;27;20027;-85
2020/12/04 09:39:51;;;;;;;16.40;9.63;;;4.70;70.50;;;;;;5109815;28;20318;-84
2020/12/04 09:42:17;;;;;;;25.10;11.35;;;4.60;71.00;;;;;;5092170;28;20403;-83
2020/12/04 09:44:45;;;;;;;17.50;10.20;;;4.70;70.80;;;;;;5106744;28;20027;-88
2020/12/04 09:47:11;;;;;;;18.45;10.00;;;4.70;71.50;;;;;;5111294;28;20019;-85
2020/12/04 09:49:37;;;;;;;17.10;9.80;;;4.70;72.20;;;;;;5087021;28;20964;-84
2020/12/04 09:52:04;;;;;;;18.63;10.68;;;4.70;71.40;;;;;;5105482;28;20118;-83
2020/12/04 09:54:31;;;;;;;16.65;8.98;;;4.70;70.30;;;;;;5091919;28;20472;-85
2020/12/04 09:56:58;;;;;;;15.07;9.70;;;4.70;70.70;;;;;;5108558;28;20085;-85
2020/12/04 09:59:25;;;;;;;22.73;11.50;;;4.70;71.00;;;;;;5109544;28;20054;-76
2020/12/04 10:01:52;;;;;;;26.60;10.45;;;4.70;71.50;;;;;;5109245;28;20448;-80
2020/12/04 10:04:18;;;;;;;28.63;11.70;;;4.70;72.10;;;;;;5105600;28;20038;-84
2020/12/04 10:06:47;;;;;;;18.55;11.70;;;4.60;72.90;;;;;;5115626;27;20605;-84
2020/12/04 10:09:14;;;;;;;20.73;10.40;;;4.60;73.30;;;;;;5110185;28;20035;-85
2020/12/04 10:11:41;;;;;;;21.75;10.70;;;4.60;73.60;;;;;;5090812;28;20043;-84
2020/12/04 10:14:07;;;;;;;19.33;11.02;;;4.60;74.50;;;;;;5108806;28;20375;-79
2020/12/04 10:16:33;;;;;;;22.33;12.00;;;4.70;73.60;;;;;;5101345;28;20032;-80
2020/12/04 10:18:59;;;;;;;21.05;11.25;;;4.60;73.30;;;;;;5107758;28;20483;-89
2020/12/04 10:21:25;;;;;;;20.00;10.50;;;4.60;73.50;;;;;;5101274;28;20039;-78
2020/12/04 10:23:54;;;;;;;20.98;12.27;;;4.60;73.40;;;;;;5103915;28;20498;-88
2020/12/04 10:26:20;;;;;;;21.85;12.20;;;4.60;74.30;;;;;;5110366;28;20032;-85
2020/12/04 10:28:46;;;;;;;21.35;10.90;;;4.60;72.90;;;;;;5102844;28;20024;-85
2020/12/04 10:31:11;;;;;;;17.58;11.27;;;4.60;73.30;;;;;;5110099;28;20092;-80
2020/12/04 10:33:37;;;;;;;21.42;10.93;;;4.60;72.30;;;;;;5108199;28;20118;-84
2020/12/04 10:36:03;;;;;;;16.13;10.32;;;4.50;71.90;;;;;;5110488;28;20065;-84
2020/12/04 10:38:29;;;;;;;17.52;10.45;;;4.50;72.00;;;;;;5108046;28;20044;-84
2020/12/04 10:40:56;;;;;;;17.38;9.63;;;4.50;72.40;;;;;;5112201;28;20186;-84
2020/12/04 10:43:22;;;;;;;16.92;9.30;;;4.50;72.50;;;;;;5110770;28;20106;-81
2020/12/04 10:45:48;;;;;;;15.27;8.75;;;4.50;72.20;;;;;;5083444;28;21102;-84
2020/12/04 10:48:14;;;;;;;19.83;9.95;;;4.50;72.60;;;;;;5102538;28;20058;-85
2020/12/04 10:50:40;;;;;;;18.90;11.20;;;4.50;73.10;;;;;;5109552;28;20032;-85
2020/12/04 10:53:06;;;;;;;22.45;11.48;;;4.60;73.10;;;;;;5112191;28;20034;-79
2020/12/04 10:55:31;;;;;;;21.40;10.43;;;4.60;73.50;;;;;;5110229;28;20035;-82
2020/12/04 10:57:57;;;;;;;19.33;10.68;;;4.60;72.50;;;;;;5110626;28;20034;-86
2020/12/04 11:00:23;;;;;;;22.77;11.65;;;4.60;72.60;;;;;;5110001;28;20084;-80
2020/12/04 11:02:53;;;;;;;21.50;11.02;;;4.60;72.90;;;;;;5108953;28;20058;-79
2020/12/04 11:07:59;;;;;;;26.02;12.10;;;4.60;74.00;;;;;;5105842;28;20054;-82
2020/12/04 11:10:25;;;;;;;26.38;12.80;;;4.60;73.60;;;;;;5109490;28;20460;-78
2020/12/04 11:12:51;;;;;;;28.20;12.45;;;4.60;74.50;;;;;;5108097;28;20076;-81
2020/12/04 11:15:16;;;;;;;24.95;12.50;;;4.70;74.20;;;;;;5101887;28;20056;-83
2020/12/04 11:17:42;;;;;;;24.33;13.18;;;4.70;74.50;;;;;;5107343;28;20038;-81
2020/12/04 11:20:08;;;;;;;27.38;12.15;;;4.70;72.80;;;;;;5092451;28;20442;-76
2020/12/04 11:22:35;;;;;;;21.08;11.57;;;4.70;73.80;;;;;;5116762;28;20035;-75
2020/12/04 11:25:03;;;;;;;24.80;12.45;;;4.70;76.30;;;;;;5108507;28;20505;-76
2020/12/04 11:27:28;;;;;;;23.42;13.40;;;4.60;73.60;;;;;;5110938;27;20088;-72
2020/12/04 11:29:54;;;;;;;25.40;13.55;;;4.60;74.40;;;;;;5100356;28;20024;-78
2020/12/04 11:32:20;;;;;;;28.65;13.38;;;4.60;74.70;;;;;;5114167;28;20043;-76
2020/12/04 11:34:46;;;;;;;25.73;12.80;;;4.60;75.40;;;;;;5105706;28;20869;-79
2020/12/04 11:37:12;;;;;;;26.35;13.00;;;4.60;76.00;;;;;;5094188;28;20028;-78
2020/12/04 11:39:40;;;;;;;21.02;13.00;;;4.60;75.30;;;;;;5113410;28;20059;-81
2020/12/04 11:42:15;;;;;;;26.58;14.18;;;4.60;74.90;;;;;;5091574;28;20441;-82
2020/12/04 11:44:40;;;;;;;32.80;15.23;;;4.60;75.30;;;;;;5088308;28;20028;-82
2020/12/04 11:47:06;;;;;;;25.83;12.95;;;4.60;76.00;;;;;;5110735;28;20028;-82
2020/12/04 11:49:32;;;;;;;32.75;17.60;;;4.60;75.90;;;;;;5112249;28;20403;-83
2020/12/04 11:51:57;;;;;;;24.50;14.15;;;4.60;76.00;;;;;;5108584;28;20076;-82
2020/12/04 11:54:23;;;;;;;23.38;13.55;;;4.60;75.80;;;;;;5111492;28;20035;-77
2020/12/04 11:56:51;;;;;;;23.88;13.15;;;4.60;75.50;;;;;;5105565;28;20590;-79
2020/12/04 11:59:18;;;;;;;28.63;12.68;;;4.50;75.80;;;;;;5097347;28;20020;-80
2020/12/04 12:01:45;;;;;;;25.33;12.82;;;4.60;76.60;;;;;;5110600;28;20118;-80
2020/12/04 12:04:14;;;;;;;26.08;12.65;;;4.60;76.60;;;;;;5083527;28;20436;-78
2020/12/04 12:06:42;;;;;;;20.20;11.75;;;4.60;76.00;;;;;;5097005;28;20032;-81
2020/12/04 12:09:08;;;;;;;21.60;10.90;;;4.50;75.50;;;;;;5112887;28;20463;-81
2020/12/04 12:11:34;;;;;;;19.00;11.50;;;4.50;76.50;;;;;;5093419;28;20039;-81
2020/12/04 12:13:59;;;;;;;20.17;11.52;;;4.50;75.70;;;;;;5112854;28;20042;-79
2020/12/04 12:16:25;;;;;;;18.45;10.98;;;4.50;76.20;;;;;;5112608;28;20065;-80
2020/12/04 12:18:51;;;;;;;18.80;10.52;;;4.50;76.50;;;;;;5112066;28;20081;-81
2020/12/04 12:21:17;;;;;;;18.95;10.57;;;4.40;77.10;;;;;;5112332;28;20377;-79
2020/12/04 12:23:43;;;;;;;20.73;11.63;;;4.40;77.20;;;;;;5103373;28;20038;-81
2020/12/04 12:26:11;;;;;;;20.98;11.18;;;4.40;77.40;;;;;;5105758;28;20103;-81
2020/12/04 12:28:40;;;;;;;24.00;11.57;;;4.40;77.50;;;;;;5110841;28;20551;-84
2020/12/04 12:31:06;;;;;;;22.67;12.48;;;4.40;77.10;;;;;;5112284;28;20074;-77
2020/12/04 12:33:32;;;;;;;25.45;11.50;;;4.40;77.90;;;;;;5109562;28;20793;-81
2020/12/04 12:35:58;;;;;;;24.58;12.25;;;4.40;78.80;;;;;;5110792;28;20031;-80
2020/12/04 12:38:23;;;;;;;17.80;10.65;;;4.50;79.50;;;;;;5112154;28;20020;-80
2020/12/04 12:40:49;;;;;;;19.08;11.18;;;4.50;79.00;;;;;;5109952;28;20545;-81
2020/12/04 12:43:15;;;;;;;21.90;10.20;;;4.50;78.30;;;;;;5112647;28;20028;-82
2020/12/04 12:45:41;;;;;;;19.70;10.13;;;4.40;78.60;;;;;;5111337;28;20027;-78